Time;durP1;ratioP1;P1;durP2;ratioP2;P2;SDS_P1;SDS_P2;PMS_P1;PMS_P2;Temp;Humidity;BMP_temperature;BMP_pressure;BME280_temperature;BME280_humidity;BME280_pressure;Samples;Min_cycle;Max_cycle;Signal;HPM_P1;HPM_P2
2021/11/06 00:00:20;;;;;;;4.87;2.30;;;;;;;;;;5016560;28;20182;-72
2021/11/06 00:02:46;;;;;;;7.77;2.10;;;;;;;;;;5017121;28;20197;-72
2021/11/06 00:05:12;;;;;;;6.93;2.40;;;;;;;;;;5009405;28;20190;-71
2021/11/06 00:07:38;;;;;;;5.87;2.73;;;;;;;;;;5016239;28;20185;-71
2021/11/06 00:10:06;;;;;;;7.43;3.27;;;;;;;;;;5010645;28;20435;-72
2021/11/06 00:12:31;;;;;;;5.70;2.27;;;;;;;;;;5018901;28;20182;-72
2021/11/06 00:14:56;;;;;;;4.30;2.00;;;;;;;;;;5011381;28;20241;-71
2021/11/06 00:17:22;;;;;;;5.67;2.17;;;;;;;;;;5018670;28;20219;-71
2021/11/06 00:19:47;;;;;;;6.33;2.80;;;;;;;;;;5009550;28;20190;-71
2021/11/06 00:22:12;;;;;;;8.50;2.80;;;;;;;;;;5020399;28;20205;-72
2021/11/06 00:24:38;;;;;;;10.43;2.90;;;;;;;;;;5004765;28;20631;-72
2021/11/06 00:27:04;;;;;;;14.40;3.00;;;;;;;;;;5019972;28;20213;-72
2021/11/06 00:29:29;;;;;;;6.87;2.70;;;;;;;;;;5012198;28;20194;-71
2021/11/06 00:31:55;;;;;;;9.47;3.00;;;;;;;;;;5022173;28;20178;-71
2021/11/06 00:34:20;;;;;;;12.87;3.50;;;;;;;;;;5021387;28;20862;-71
2021/11/06 00:36:45;;;;;;;7.13;3.07;;;;;;;;;;5014409;28;20240;-71
2021/11/06 00:39:11;;;;;;;7.80;3.27;;;;;;;;;;5021361;28;20197;-71
2021/11/06 00:41:37;;;;;;;6.47;3.37;;;;;;;;;;5014195;28;20193;-71
2021/11/06 00:44:02;;;;;;;6.23;3.40;;;;;;;;;;5020416;28;20198;-71
2021/11/06 00:46:28;;;;;;;8.83;3.70;;;;;;;;;;5013656;28;20201;-71
2021/11/06 00:48:53;;;;;;;9.37;3.47;;;;;;;;;;5017705;28;20252;-71
2021/11/06 00:51:18;;;;;;;7.10;3.70;;;;;;;;;;5015625;28;20210;-71
2021/11/06 00:53:44;;;;;;;7.40;3.90;;;;;;;;;;5019135;28;20197;-71
2021/11/06 00:56:10;;;;;;;8.83;4.03;;;;;;;;;;5013932;28;20218;-71
2021/11/06 00:58:35;;;;;;;8.20;4.27;;;;;;;;;;5017899;28;20247;-71
2021/11/06 01:01:01;;;;;;;7.43;4.20;;;;;;;;;;5013374;28;20190;-71
2021/11/06 01:03:26;;;;;;;10.27;4.97;;;;;;;;;;5019539;28;20645;-71
2021/11/06 01:05:52;;;;;;;11.23;4.40;;;;;;;;;;5020187;28;20190;-71
2021/11/06 01:08:18;;;;;;;8.00;4.93;;;;;;;;;;5007574;28;20201;-71
2021/11/06 01:10:44;;;;;;;11.27;4.30;;;;;;;;;;5019537;28;20229;-71
2021/11/06 01:13:10;;;;;;;11.27;4.70;;;;;;;;;;5010285;28;20216;-70
2021/11/06 01:15:36;;;;;;;9.70;4.17;;;;;;;;;;5018264;28;20233;-71
2021/11/06 01:18:02;;;;;;;8.37;4.43;;;;;;;;;;5005771;28;20653;-71
2021/11/06 01:20:27;;;;;;;10.33;4.67;;;;;;;;;;5019062;28;20306;-71
2021/11/06 01:22:53;;;;;;;9.43;4.50;;;;;;;;;;5011536;28;20522;-71
2021/11/06 01:25:18;;;;;;;6.47;4.10;;;;;;;;;;5014361;28;20197;-71
2021/11/06 01:27:45;;;;;;;9.40;5.07;;;;;;;;;;5011554;28;20229;-71
2021/11/06 01:30:11;;;;;;;13.93;5.00;;;;;;;;;;5018857;28;20203;-71
2021/11/06 01:32:37;;;;;;;8.87;5.03;;;;;;;;;;5011095;28;20240;-71
2021/11/06 01:35:05;;;;;;;7.77;4.60;;;;;;;;;;5019184;28;20584;-71
2021/11/06 01:37:30;;;;;;;12.63;5.13;;;;;;;;;;5024690;28;20197;-70
2021/11/06 01:39:55;;;;;;;13.43;5.20;;;;;;;;;;5015365;28;20193;-71
2021/11/06 01:42:21;;;;;;;11.27;4.90;;;;;;;;;;5024020;28;20186;-71
2021/11/06 01:44:46;;;;;;;9.07;4.57;;;;;;;;;;5010317;28;20190;-72
2021/11/06 01:47:12;;;;;;;8.53;5.43;;;;;;;;;;5024348;28;20679;-72
2021/11/06 01:49:38;;;;;;;14.50;5.63;;;;;;;;;;5013365;28;20221;-72
2021/11/06 01:52:04;;;;;;;11.27;5.20;;;;;;;;;;5023344;28;20256;-71
2021/11/06 01:54:30;;;;;;;8.63;5.37;;;;;;;;;;5010023;28;20194;-71
2021/11/06 01:56:55;;;;;;;10.33;5.07;;;;;;;;;;5021397;28;20217;-71
2021/11/06 01:59:22;;;;;;;8.10;5.70;;;;;;;;;;5010959;28;20206;-72
2021/11/06 02:01:48;;;;;;;10.77;5.17;;;;;;;;;;5021614;28;20186;-71
2021/11/06 02:04:14;;;;;;;11.10;5.37;;;;;;;;;;5012344;28;20178;-71
2021/11/06 02:06:39;;;;;;;16.20;6.13;;;;;;;;;;5015613;28;20186;-72
2021/11/06 02:09:04;;;;;;;10.90;6.03;;;;;;;;;;5023377;28;20248;-71
2021/11/06 02:11:32;;;;;;;15.67;5.80;;;;;;;;;;5014515;28;20245;-71
2021/11/06 02:13:57;;;;;;;13.07;5.53;;;;;;;;;;5020890;28;20194;-72
2021/11/06 02:16:22;;;;;;;11.87;5.90;;;;;;;;;;5014061;28;20218;-71
2021/11/06 02:18:48;;;;;;;14.50;6.17;;;;;;;;;;5021360;28;20198;-72
2021/11/06 02:21:14;;;;;;;14.33;6.80;;;;;;;;;;5013443;28;20265;-71
2021/11/06 02:23:42;;;;;;;13.57;7.20;;;;;;;;;;5019477;28;20208;-72
2021/11/06 02:26:09;;;;;;;13.40;7.37;;;;;;;;;;5011385;28;20323;-71
2021/11/06 02:28:34;;;;;;;15.90;7.37;;;;;;;;;;5023465;28;20197;-72
2021/11/06 02:31:00;;;;;;;11.93;7.37;;;;;;;;;;5012357;28;20195;-72
2021/11/06 02:33:25;;;;;;;14.07;8.07;;;;;;;;;;5019460;28;20275;-71
2021/11/06 02:35:51;;;;;;;15.60;8.13;;;;;;;;;;5018538;28;20544;-71
2021/11/06 02:38:16;;;;;;;13.10;8.37;;;;;;;;;;5009682;28;20676;-71
2021/11/06 02:40:42;;;;;;;20.80;8.23;;;;;;;;;;5018624;28;20182;-71
2021/11/06 02:43:09;;;;;;;14.77;8.60;;;;;;;;;;5014486;28;20224;-71
2021/11/06 02:45:36;;;;;;;10.80;8.53;;;;;;;;;;5018788;28;20564;-71
2021/11/06 02:48:03;;;;;;;18.53;8.47;;;;;;;;;;5012066;28;20194;-71
2021/11/06 02:50:28;;;;;;;19.80;10.27;;;;;;;;;;5019378;28;20194;-71
2021/11/06 02:52:55;;;;;;;15.13;9.77;;;;;;;;;;5012734;28;20190;-71
2021/11/06 02:55:21;;;;;;;13.63;8.83;;;;;;;;;;5017639;28;20206;-71
2021/11/06 02:57:47;;;;;;;15.20;9.20;;;;;;;;;;5013154;28;20196;-71
2021/11/06 03:00:13;;;;;;;12.53;8.87;;;;;;;;;;5018645;28;20198;-71
2021/11/06 03:02:38;;;;;;;16.87;8.73;;;;;;;;;;5011822;28;20230;-71
2021/11/06 03:05:09;;;;;;;14.13;9.63;;;;;;;;;;5020181;28;20327;-71
2021/11/06 03:07:35;;;;;;;13.33;9.47;;;;;;;;;;5019458;28;20602;-71
2021/11/06 03:10:01;;;;;;;15.93;10.00;;;;;;;;;;5015855;28;20277;-71
2021/11/06 03:12:28;;;;;;;15.07;8.47;;;;;;;;;;5019437;28;20216;-71
2021/11/06 03:14:53;;;;;;;17.13;9.83;;;;;;;;;;5012944;28;20592;-72
2021/11/06 03:17:18;;;;;;;13.30;9.80;;;;;;;;;;5017105;28;20308;-71
2021/11/06 03:19:44;;;;;;;13.00;9.63;;;;;;;;;;5011213;28;20206;-71
2021/11/06 03:22:10;;;;;;;14.00;9.50;;;;;;;;;;5020668;28;20193;-71
2021/11/06 03:24:37;;;;;;;16.93;10.23;;;;;;;;;;5010190;28;20252;-71
2021/11/06 03:27:03;;;;;;;19.17;10.83;;;;;;;;;;5018745;28;20300;-71
2021/11/06 03:29:29;;;;;;;19.50;10.37;;;;;;;;;;5012243;28;20198;-71
2021/11/06 03:31:54;;;;;;;19.47;9.97;;;;;;;;;;5018383;28;20251;-72
2021/11/06 03:34:20;;;;;;;16.63;10.50;;;;;;;;;;5010109;28;20253;-71
2021/11/06 03:36:47;;;;;;;15.43;10.23;;;;;;;;;;5018684;28;20225;-72
2021/11/06 03:39:12;;;;;;;15.03;10.67;;;;;;;;;;5015688;28;20193;-72
2021/11/06 03:41:37;;;;;;;18.40;11.67;;;;;;;;;;5009423;28;20667;-71
2021/11/06 03:44:03;;;;;;;16.17;11.63;;;;;;;;;;5019676;28;20193;-72
2021/11/06 03:46:29;;;;;;;16.27;10.63;;;;;;;;;;5009550;28;20198;-71
2021/11/06 03:48:54;;;;;;;16.23;11.13;;;;;;;;;;5015012;28;20198;-72
2021/11/06 03:51:20;;;;;;;16.03;11.13;;;;;;;;;;5004833;28;20194;-71
2021/11/06 03:53:46;;;;;;;18.37;10.57;;;;;;;;;;5016910;28;20248;-72
2021/11/06 03:56:11;;;;;;;16.77;11.80;;;;;;;;;;5006797;28;20234;-72
2021/11/06 03:58:37;;;;;;;17.53;11.83;;;;;;;;;;5017767;28;20331;-71
2021/11/06 04:01:03;;;;;;;17.43;11.30;;;;;;;;;;5009273;28;20198;-72
2021/11/06 04:03:29;;;;;;;19.10;11.63;;;;;;;;;;5017832;28;20610;-72
2021/11/06 04:05:54;;;;;;;16.67;12.27;;;;;;;;;;5008006;28;20282;-72
2021/11/06 04:08:20;;;;;;;17.87;11.57;;;;;;;;;;5013275;28;20197;-72
2021/11/06 04:10:46;;;;;;;17.93;12.70;;;;;;;;;;5018361;28;20324;-72
2021/11/06 04:13:13;;;;;;;19.57;12.40;;;;;;;;;;5008229;28;20289;-72
2021/11/06 04:15:40;;;;;;;20.23;12.03;;;;;;;;;;5015401;28;20689;-72
2021/11/06 04:18:05;;;;;;;18.10;12.40;;;;;;;;;;5007182;28;20604;-72
2021/11/06 04:20:31;;;;;;;19.40;12.33;;;;;;;;;;5017078;28;20270;-72
2021/11/06 04:22:56;;;;;;;20.27;13.10;;;;;;;;;;5006042;28;20190;-72
2021/11/06 04:25:22;;;;;;;21.60;12.63;;;;;;;;;;5015537;28;20232;-71
2021/11/06 04:27:47;;;;;;;20.70;12.67;;;;;;;;;;5008186;28;20729;-72
2021/11/06 04:30:13;;;;;;;17.80;12.40;;;;;;;;;;5015786;28;20193;-72
2021/11/06 04:32:38;;;;;;;21.60;13.50;;;;;;;;;;5005132;28;20486;-72
2021/11/06 04:35:04;;;;;;;18.73;12.77;;;;;;;;;;5010063;28;20634;-72
2021/11/06 04:37:29;;;;;;;23.57;13.33;;;;;;;;;;5007309;28;20198;-72
2021/11/06 04:39:54;;;;;;;18.00;12.50;;;;;;;;;;5016484;28;20653;-71
2021/11/06 04:42:20;;;;;;;18.23;11.93;;;;;;;;;;5014101;28;20276;-72
2021/11/06 04:44:45;;;;;;;17.00;11.87;;;;;;;;;;5004897;28;20222;-72
2021/11/06 04:47:10;;;;;;;20.87;12.73;;;;;;;;;;5016104;28;20216;-72
2021/11/06 04:49:37;;;;;;;21.00;12.07;;;;;;;;;;5007882;28;20190;-71
2021/11/06 04:52:03;;;;;;;23.93;12.77;;;;;;;;;;5016114;28;20194;-72
2021/11/06 04:54:29;;;;;;;24.03;12.47;;;;;;;;;;5006922;28;20256;-72
2021/11/06 04:56:54;;;;;;;26.50;14.03;;;;;;;;;;5014672;28;20218;-71
2021/11/06 04:59:19;;;;;;;24.47;13.57;;;;;;;;;;5009305;28;20189;-72
2021/11/06 05:01:45;;;;;;;24.73;13.30;;;;;;;;;;5011340;28;20186;-72
2021/11/06 05:04:10;;;;;;;23.70;13.13;;;;;;;;;;5008260;28;20205;-72
2021/11/06 05:06:36;;;;;;;25.30;13.47;;;;;;;;;;5017073;28;20688;-72
2021/11/06 05:09:02;;;;;;;22.87;13.43;;;;;;;;;;4315943;28;10000712;-72
2021/11/06 05:11:27;;;;;;;22.57;13.00;;;;;;;;;;5010417;28;20287;-72
2021/11/06 05:13:53;;;;;;;26.33;12.77;;;;;;;;;;5013687;28;20914;-72
2021/11/06 05:16:18;;;;;;;24.03;12.57;;;;;;;;;;5004075;28;20353;-71
2021/11/06 05:18:44;;;;;;;33.17;14.20;;;;;;;;;;5014011;28;20213;-72
2021/11/06 05:21:10;;;;;;;26.13;13.37;;;;;;;;;;5002535;28;20216;-72
2021/11/06 05:23:35;;;;;;;30.07;13.10;;;;;;;;;;5014110;28;20210;-72
2021/11/06 05:26:00;;;;;;;26.57;13.67;;;;;;;;;;5004888;28;20194;-71
2021/11/06 05:28:26;;;;;;;29.17;13.80;;;;;;;;;;5007124;28;20240;-72
2021/11/06 05:30:51;;;;;;;28.57;13.40;;;;;;;;;;5003452;28;20198;-72
2021/11/06 05:33:17;;;;;;;22.97;12.80;;;;;;;;;;5005971;28;20200;-73
2021/11/06 05:35:42;;;;;;;29.27;13.97;;;;;;;;;;5004447;28;20223;-72
2021/11/06 05:38:08;;;;;;;26.43;12.43;;;;;;;;;;5010744;28;20197;-72
2021/11/06 05:40:33;;;;;;;32.27;13.90;;;;;;;;;;5012152;28;20281;-72
2021/11/06 05:42:59;;;;;;;33.67;13.83;;;;;;;;;;5003634;28;20251;-72
2021/11/06 05:45:25;;;;;;;29.33;13.30;;;;;;;;;;5010874;28;20178;-71
2021/11/06 05:47:50;;;;;;;24.47;13.87;;;;;;;;;;5001495;28;21089;-72
2021/11/06 05:50:16;;;;;;;25.97;13.33;;;;;;;;;;5008481;28;20313;-72
2021/11/06 05:52:43;;;;;;;28.13;14.40;;;;;;;;;;5005727;28;20237;-72
2021/11/06 05:55:13;;;;;;;30.97;13.97;;;;;;;;;;5013660;28;20205;-73
2021/11/06 05:57:38;;;;;;;33.17;14.87;;;;;;;;;;5002130;28;20225;-72
2021/11/06 06:00:08;;;;;;;32.13;14.23;;;;;;;;;;5010686;28;20186;-72
2021/11/06 06:02:34;;;;;;;32.57;14.93;;;;;;;;;;5000833;28;20224;-72
2021/11/06 06:04:59;;;;;;;34.00;14.80;;;;;;;;;;5010107;28;20607;-72
2021/11/06 06:07:24;;;;;;;28.47;14.50;;;;;;;;;;5003250;28;22451;-72
2021/11/06 06:09:50;;;;;;;27.87;14.93;;;;;;;;;;5005465;28;20230;-72
2021/11/06 06:12:15;;;;;;;28.30;15.20;;;;;;;;;;5012470;28;20280;-72
2021/11/06 06:14:41;;;;;;;28.23;14.63;;;;;;;;;;5004897;28;20633;-72
2021/11/06 06:17:06;;;;;;;27.17;14.90;;;;;;;;;;5010725;28;20226;-72
2021/11/06 06:19:32;;;;;;;28.90;14.17;;;;;;;;;;5001513;28;20186;-72
2021/11/06 06:21:57;;;;;;;27.87;14.80;;;;;;;;;;5011258;28;20222;-72
2021/11/06 06:24:22;;;;;;;27.43;14.90;;;;;;;;;;5009008;28;20201;-72
2021/11/06 06:26:48;;;;;;;34.17;16.17;;;;;;;;;;5015769;28;20322;-72
2021/11/06 06:29:13;;;;;;;26.00;15.47;;;;;;;;;;5005111;28;20220;-72
2021/11/06 06:31:38;;;;;;;28.47;15.73;;;;;;;;;;5013594;28;20186;-72
2021/11/06 06:34:04;;;;;;;27.83;15.43;;;;;;;;;;5005283;28;20947;-72
2021/11/06 06:36:29;;;;;;;26.57;14.97;;;;;;;;;;5014221;28;20200;-72
2021/11/06 06:38:54;;;;;;;27.23;15.37;;;;;;;;;;5007129;28;20267;-72
2021/11/06 06:41:20;;;;;;;26.03;14.43;;;;;;;;;;5012201;28;20186;-72
2021/11/06 06:43:45;;;;;;;30.20;15.43;;;;;;;;;;5014686;28;20198;-72
2021/11/06 06:46:11;;;;;;;31.77;16.10;;;;;;;;;;5004254;28;20225;-72
2021/11/06 06:48:36;;;;;;;27.53;15.73;;;;;;;;;;5010739;28;20232;-72
2021/11/06 06:51:02;;;;;;;36.10;16.37;;;;;;;;;;5000343;28;20254;-72
2021/11/06 06:53:27;;;;;;;30.17;15.80;;;;;;;;;;5010472;28;20193;-72
2021/11/06 06:55:52;;;;;;;30.67;14.80;;;;;;;;;;5005609;28;20872;-73
2021/11/06 06:58:18;;;;;;;29.73;15.10;;;;;;;;;;5012413;28;20217;-70
2021/11/06 07:00:43;;;;;;;28.00;15.10;;;;;;;;;;5002473;28;20361;-71
2021/11/06 07:03:09;;;;;;;31.57;16.00;;;;;;;;;;5012947;28;20235;-71
2021/11/06 07:05:34;;;;;;;27.47;15.47;;;;;;;;;;5007397;28;20194;-71
2021/11/06 07:08:00;;;;;;;30.57;16.50;;;;;;;;;;5010599;28;20232;-70
2021/11/06 07:10:26;;;;;;;27.27;15.63;;;;;;;;;;5006370;28;20241;-71
2021/11/06 07:12:53;;;;;;;29.17;15.43;;;;;;;;;;5012156;28;20567;-71
2021/11/06 07:15:18;;;;;;;29.97;15.77;;;;;;;;;;5010412;28;20752;-70
2021/11/06 07:17:43;;;;;;;31.10;15.87;;;;;;;;;;5003923;28;20197;-71
2021/11/06 07:20:10;;;;;;;30.63;15.80;;;;;;;;;;5013570;28;20198;-71
2021/11/06 07:22:36;;;;;;;23.90;14.90;;;;;;;;;;4999377;28;20205;-71
2021/11/06 07:25:04;;;;;;;32.20;16.57;;;;;;;;;;5008492;28;20261;-71
2021/11/06 07:27:31;;;;;;;32.27;16.27;;;;;;;;;;5005810;28;20194;-70
2021/11/06 07:29:56;;;;;;;30.43;16.20;;;;;;;;;;5012544;28;20183;-71
2021/11/06 07:32:22;;;;;;;26.50;15.50;;;;;;;;;;5006434;28;20228;-71
2021/11/06 07:34:47;;;;;;;25.63;15.73;;;;;;;;;;5012782;28;20649;-71
2021/11/06 07:37:13;;;;;;;28.60;17.17;;;;;;;;;;5005346;28;20196;-71
2021/11/06 07:39:38;;;;;;;28.87;16.03;;;;;;;;;;5015660;28;20190;-71
2021/11/06 07:42:04;;;;;;;30.23;16.73;;;;;;;;;;5017694;28;20213;-71
2021/11/06 07:44:29;;;;;;;32.60;17.03;;;;;;;;;;5008005;28;20303;-71
2021/11/06 07:46:55;;;;;;;27.13;16.83;;;;;;;;;;5016936;28;20178;-71
2021/11/06 07:49:20;;;;;;;31.23;17.37;;;;;;;;;;5003756;28;20197;-72
2021/11/06 07:51:45;;;;;;;27.83;17.80;;;;;;;;;;5016985;28;20182;-71
2021/11/06 07:54:11;;;;;;;32.87;18.37;;;;;;;;;;5009182;28;20190;-71
2021/11/06 07:56:38;;;;;;;29.53;18.23;;;;;;;;;;5017626;28;20252;-71
2021/11/06 07:59:05;;;;;;;29.40;18.27;;;;;;;;;;5004755;28;20262;-71
2021/11/06 08:01:30;;;;;;;30.23;17.23;;;;;;;;;;5016857;28;21497;-71
2021/11/06 08:03:56;;;;;;;29.03;17.87;;;;;;;;;;5007109;28;20213;-71
2021/11/06 08:06:21;;;;;;;32.40;18.83;;;;;;;;;;5017800;28;20527;-71
2021/11/06 08:08:46;;;;;;;33.60;18.40;;;;;;;;;;5009566;28;20190;-71
2021/11/06 08:11:12;;;;;;;29.55;17.42;;;;;;;;;;5017966;28;20249;-72
2021/11/06 08:13:37;;;;;;;28.30;18.03;;;;;;;;;;5016418;28;20605;-72
2021/11/06 08:16:03;;;;;;;29.92;17.92;;;;;;;;;;5007558;28;20214;-72
2021/11/06 08:18:29;;;;;;;29.27;18.30;;;;;;;;;;5017482;28;20274;-72
2021/11/06 08:20:55;;;;;;;26.20;17.67;;;;;;;;;;5007695;28;20209;-72
2021/11/06 08:23:21;;;;;;;29.77;17.43;;;;;;;;;;5018160;28;20267;-71
2021/11/06 08:25:47;;;;;;;28.27;18.13;;;;;;;;;;5007939;28;20601;-71
2021/11/06 08:28:13;;;;;;;25.50;17.47;;;;;;;;;;5016643;28;20693;-71
2021/11/06 08:30:38;;;;;;;34.50;17.57;;;;;;;;;;5006240;28;20198;-71
2021/11/06 08:33:04;;;;;;;29.27;18.10;;;;;;;;;;5016159;28;20197;-71
2021/11/06 08:35:30;;;;;;;27.63;16.85;;;;;;;;;;5006892;28;20261;-71
2021/11/06 08:37:58;;;;;;;27.58;16.83;;;;;;;;;;5015343;28;20193;-71
2021/11/06 08:40:23;;;;;;;32.00;17.60;;;;;;;;;;5001593;28;20193;-71
2021/11/06 08:42:49;;;;;;;26.02;17.10;;;;;;;;;;5012215;28;20200;-71
2021/11/06 08:45:16;;;;;;;26.90;15.80;;;;;;;;;;5014354;28;20346;-71
2021/11/06 08:47:42;;;;;;;28.07;16.60;;;;;;;;;;5003320;28;20193;-72
2021/11/06 08:50:11;;;;;;;24.13;16.77;;;;;;;;;;5014339;28;20194;-71
2021/11/06 08:52:37;;;;;;;25.67;15.82;;;;;;;;;;5000900;28;20182;-71
2021/11/06 08:55:04;;;;;;;24.92;15.98;;;;;;;;;;5010884;28;20214;-71
2021/11/06 08:57:29;;;;;;;23.17;15.02;;;;;;;;;;5005671;28;20277;-71
2021/11/06 09:00:00;;;;;;;22.47;15.40;;;;;;;;;;5012661;28;20220;-71
2021/11/06 09:02:25;;;;;;;24.85;15.13;;;;;;;;;;5004764;28;20197;-71
2021/11/06 09:04:50;;;;;;;25.17;15.47;;;;;;;;;;5011583;28;20193;-72
2021/11/06 09:07:17;;;;;;;25.67;14.98;;;;;;;;;;5004402;28;20626;-71
2021/11/06 09:09:43;;;;;;;23.33;15.25;;;;;;;;;;5012287;28;20544;-71
2021/11/06 09:12:09;;;;;;;22.67;14.37;;;;;;;;;;4998262;28;20237;-72
2021/11/06 09:14:34;;;;;;;24.93;14.00;;;;;;;;;;5016336;28;20190;-72
2021/11/06 09:17:00;;;;;;;20.25;14.18;;;;;;;;;;5011231;28;20866;-71
2021/11/06 09:19:25;;;;;;;20.85;13.75;;;;;;;;;;5003247;28;20204;-72
2021/11/06 09:21:51;;;;;;;21.05;14.10;;;;;;;;;;5013343;28;20251;-71
2021/11/06 09:24:18;;;;;;;23.50;13.40;;;;;;;;;;5000042;28;20372;-72
2021/11/06 09:26:44;;;;;;;20.58;13.50;;;;;;;;;;5015012;28;20192;-71
2021/11/06 09:29:11;;;;;;;24.50;13.77;;;;;;;;;;5004134;28;20280;-72
2021/11/06 09:31:37;;;;;;;25.58;14.38;;;;;;;;;;5012922;28;20186;-71
2021/11/06 09:34:03;;;;;;;22.17;13.15;;;;;;;;;;5003914;28;21159;-72
2021/11/06 09:36:28;;;;;;;21.30;13.13;;;;;;;;;;5015562;28;20205;-71
2021/11/06 09:38:55;;;;;;;20.27;13.98;;;;;;;;;;5005353;28;20263;-71
2021/11/06 09:41:20;;;;;;;20.73;12.98;;;;;;;;;;5016586;28;20277;-72
2021/11/06 09:43:46;;;;;;;22.23;13.07;;;;;;;;;;5007310;28;20785;-71
2021/11/06 09:46:16;;;;;;;20.58;11.73;;;;;;;;;;5010537;28;20182;-71
2021/11/06 09:48:44;;;;;;;23.02;12.60;;;;;;;;;;5007084;28;20659;-72
2021/11/06 09:51:11;;;;;;;18.75;11.43;;;;;;;;;;5009636;28;20269;-72
2021/11/06 09:53:40;;;;;;;22.10;12.27;;;;;;;;;;5015939;28;20194;-72
2021/11/06 09:56:11;;;;;;;18.83;12.13;;;;;;;;;;5007965;28;20260;-75
2021/11/06 09:58:37;;;;;;;18.90;12.18;;;;;;;;;;5021109;28;20719;-71
2021/11/06 10:01:04;;;;;;;15.68;11.35;;;;;;;;;;5008666;28;20585;-71
2021/11/06 10:03:29;;;;;;;23.05;12.27;;;;;;;;;;5023627;28;20186;-72
2021/11/06 10:06:00;;;;;;;20.10;11.80;;;;;;;;;;5012055;28;20554;-72
2021/11/06 10:08:38;;;;;;;19.67;12.13;;;;;;;;;;5022369;28;20190;-72
2021/11/06 10:11:09;;;;;;;18.85;11.55;;;;;;;;;;5011835;28;20237;-72
2021/11/06 10:13:49;;;;;;;17.55;10.85;;;;;;;;;;5019840;28;20186;-72
2021/11/06 10:16:20;;;;;;;17.20;10.55;;;;;;;;;;5013209;28;20614;-71
2021/11/06 10:18:46;;;;;;;19.13;10.75;;;;;;;;;;5015732;28;20498;-72
2021/11/06 10:21:12;;;;;;;15.52;10.30;;;;;;;;;;5013910;28;20284;-73
2021/11/06 10:23:43;;;;;;;15.07;10.00;;;;;;;;;;5019253;28;20280;-72
2021/11/06 10:26:18;;;;;;;15.90;10.13;;;;;;;;;;5011936;28;20178;-73
2021/11/06 10:29:01;;;;;;;15.85;10.35;;;;;;;;;;5022299;28;20201;-72
2021/11/06 10:31:26;;;;;;;16.48;10.43;;;;;;;;;;5013106;28;20571;-72
2021/11/06 10:33:51;;;;;;;14.60;9.20;;;;;;;;;;5020934;28;20202;-73
2021/11/06 10:36:26;;;;;;;14.95;9.57;;;;;;;;;;5016564;28;20245;-72
2021/11/06 10:39:06;;;;;;;16.75;9.63;;;;;;;;;;5012001;28;20193;-72
2021/11/06 10:41:34;;;;;;;13.10;9.00;;;;;;;;;;5020838;28;20222;-72
2021/11/06 10:44:00;;;;;;;13.70;8.93;;;;;;;;;;5012154;28;20191;-72
2021/11/06 10:46:28;;;;;;;13.38;8.85;;;;;;;;;;5018881;28;20537;-72
2021/11/06 10:48:55;;;;;;;16.77;8.55;;;;;;;;;;5011802;28;20197;-72
2021/11/06 10:51:21;;;;;;;13.43;8.20;;;;;;;;;;5020821;28;20950;-73
2021/11/06 10:53:51;;;;;;;14.95;9.48;;;;;;;;;;5011336;28;20198;-72
2021/11/06 10:56:31;;;;;;;12.18;8.50;;;;;;;;;;5014930;28;20206;-72
2021/11/06 10:59:03;;;;;;;12.57;8.48;;;;;;;;;;5011652;28;20327;-72
2021/11/06 11:01:32;;;;;;;11.38;8.48;;;;;;;;;;5022794;28;20237;-72
2021/11/06 11:04:04;;;;;;;14.75;8.05;;;;;;;;;;5010273;28;20190;-72
2021/11/06 11:06:38;;;;;;;12.60;8.52;;;;;;;;;;5022107;28;20190;-72
2021/11/06 11:09:09;;;;;;;13.45;8.25;;;;;;;;;;5011111;28;20209;-72
2021/11/06 11:11:35;;;;;;;12.75;8.13;;;;;;;;;;5021855;28;20308;-73
2021/11/06 11:14:04;;;;;;;14.43;8.35;;;;;;;;;;5006629;28;20199;-72
2021/11/06 11:16:31;;;;;;;13.13;7.88;;;;;;;;;;5021081;28;20704;-72
2021/11/06 11:19:02;;;;;;;12.18;8.10;;;;;;;;;;5011672;28;20309;-72
2021/11/06 11:21:30;;;;;;;14.15;8.65;;;;;;;;;;5018151;28;20177;-72
2021/11/06 11:24:02;;;;;;;16.65;8.52;;;;;;;;;;5011260;28;20640;-72
2021/11/06 11:26:33;;;;;;;14.73;8.40;;;;;;;;;;5009077;28;20197;-73
2021/11/06 11:29:00;;;;;;;11.40;8.15;;;;;;;;;;5016701;28;20194;-72
2021/11/06 11:31:27;;;;;;;15.88;8.65;;;;;;;;;;5006871;28;20194;-72
2021/11/06 11:33:53;;;;;;;11.95;8.20;;;;;;;;;;5015496;28;20186;-72
2021/11/06 11:36:21;;;;;;;14.65;9.10;;;;;;;;;;5006718;28;20253;-72
2021/11/06 11:38:47;;;;;;;13.35;8.15;;;;;;;;;;5016980;28;20313;-73
2021/11/06 11:41:44;;;;;;;16.35;8.18;;;;;;;;;;5010974;28;20240;-71
2021/11/06 11:44:31;;;;;;;14.60;7.38;;;;;;;;;;5019188;28;21370;-72
2021/11/06 11:47:02;;;;;;;13.88;7.57;;;;;;;;;;5007608;28;21375;-72
2021/11/06 11:49:33;;;;;;;13.07;7.78;;;;;;;;;;5019375;28;20186;-72
2021/11/06 11:52:21;;;;;;;13.32;7.78;;;;;;;;;;5011907;28;20201;-72
2021/11/06 11:55:12;;;;;;;15.02;7.97;;;;;;;;;;5021749;28;20185;-72
2021/11/06 11:57:40;;;;;;;13.30;7.55;;;;;;;;;;5014018;28;20280;-72
2021/11/06 12:00:17;;;;;;;12.95;7.75;;;;;;;;;;5021764;28;20197;-72
2021/11/06 12:03:12;;;;;;;11.95;7.85;;;;;;;;;;5007913;28;20224;-72
2021/11/06 12:05:43;;;;;;;11.13;7.20;;;;;;;;;;5021615;28;20202;-73
2021/11/06 12:08:09;;;;;;;12.30;7.03;;;;;;;;;;5012727;28;20197;-72
2021/11/06 12:10:35;;;;;;;11.88;6.82;;;;;;;;;;5020863;28;21378;-72
2021/11/06 12:13:02;;;;;;;14.63;7.40;;;;;;;;;;5012868;28;20281;-72
2021/11/06 12:15:52;;;;;;;10.60;6.90;;;;;;;;;;5019264;28;20297;-72
2021/11/06 12:18:33;;;;;;;9.85;6.55;;;;;;;;;;5011555;28;20231;-72
2021/11/06 12:23:37;;;;;;;13.70;7.00;;;;;;;;;;5012551;28;20198;-71
2021/11/06 12:26:30;;;;;;;12.75;7.35;;;;;;;;;;5017182;28;20213;-70
2021/11/06 12:29:02;;;;;;;13.98;6.90;;;;;;;;;;5012500;28;20217;-71
2021/11/06 12:31:33;;;;;;;7.57;6.00;;;;;;;;;;5019289;28;20285;-72
2021/11/06 12:34:00;;;;;;;13.65;6.65;;;;;;;;;;5006363;28;20197;-72
2021/11/06 12:36:28;;;;;;;11.77;6.30;;;;;;;;;;5019754;28;20222;-71
2021/11/06 12:38:55;;;;;;;9.15;6.32;;;;;;;;;;5009406;28;20190;-72
2021/11/06 12:41:31;;;;;;;9.38;6.68;;;;;;;;;;5018789;28;20386;-71
2021/11/06 12:43:57;;;;;;;10.25;6.10;;;;;;;;;;5009409;28;20193;-72
2021/11/06 12:46:30;;;;;;;8.45;5.80;;;;;;;;;;5019163;28;20193;-72
2021/11/06 12:49:00;;;;;;;9.32;5.65;;;;;;;;;;5009702;28;20198;-72
2021/11/06 12:51:34;;;;;;;7.80;5.63;;;;;;;;;;5018883;28;20654;-72
2021/11/06 12:54:04;;;;;;;8.85;5.95;;;;;;;;;;5009253;28;20232;-73
2021/11/06 12:56:46;;;;;;;10.30;6.15;;;;;;;;;;4317527;28;10000781;-72
2021/11/06 12:59:14;;;;;;;10.27;5.78;;;;;;;;;;5001652;28;20204;-73
2021/11/06 13:01:53;;;;;;;10.38;5.97;;;;;;;;;;5010886;28;20492;-72
2021/11/06 13:04:19;;;;;;;10.75;6.50;;;;;;;;;;5009350;28;20930;-72
2021/11/06 13:06:49;;;;;;;8.85;5.80;;;;;;;;;;5006352;28;20212;-72
2021/11/06 13:09:22;;;;;;;7.78;5.65;;;;;;;;;;5010078;28;20194;-72
2021/11/06 13:12:00;;;;;;;10.07;5.30;;;;;;;;;;5016204;28;20704;-70
2021/11/06 13:14:43;;;;;;;8.80;5.70;;;;;;;;;;5011563;28;20191;-71
2021/11/06 13:17:31;;;;;;;9.13;5.20;;;;;;;;;;5005213;28;20237;-71
2021/11/06 13:20:05;;;;;;;9.57;5.75;;;;;;;;;;5026498;28;20723;-72
2021/11/06 13:22:30;;;;;;;8.02;5.85;;;;;;;;;;5007859;28;20295;-71
2021/11/06 13:25:10;;;;;;;9.20;5.35;;;;;;;;;;5014262;28;20186;-71
2021/11/06 13:27:40;;;;;;;8.65;5.40;;;;;;;;;;5005971;28;20474;-72
2021/11/06 13:30:27;;;;;;;7.45;5.45;;;;;;;;;;5013312;28;20541;-73
2021/11/06 13:33:11;;;;;;;8.25;5.57;;;;;;;;;;5009049;28;20718;-71
2021/11/06 13:35:44;;;;;;;11.00;5.75;;;;;;;;;;5019986;28;20263;-71
2021/11/06 13:38:36;;;;;;;7.97;5.07;;;;;;;;;;5005060;28;20189;-71
2021/11/06 13:41:07;;;;;;;7.85;5.25;;;;;;;;;;5021588;28;20190;-72
2021/11/06 13:43:39;;;;;;;7.95;5.38;;;;;;;;;;5011121;28;20197;-72
2021/11/06 13:46:14;;;;;;;7.30;5.18;;;;;;;;;;5013526;28;20208;-72
2021/11/06 13:49:08;;;;;;;13.45;6.55;;;;;;;;;;5001820;28;20251;-72
2021/11/06 13:51:52;;;;;;;8.15;5.40;;;;;;;;;;5015876;28;20229;-72
2021/11/06 13:54:19;;;;;;;9.77;5.47;;;;;;;;;;5013244;28;20201;-72
2021/11/06 13:56:55;;;;;;;8.27;5.90;;;;;;;;;;5019884;28;20209;-72
2021/11/06 13:59:38;;;;;;;9.75;6.47;;;;;;;;;;5007754;28;20232;-71
2021/11/06 14:02:06;;;;;;;9.63;5.93;;;;;;;;;;5018832;28;20739;-73
2021/11/06 14:04:44;;;;;;;9.77;5.50;;;;;;;;;;5012846;28;20200;-72
2021/11/06 14:07:17;;;;;;;10.68;5.55;;;;;;;;;;5017491;28;20205;-72
2021/11/06 14:09:55;;;;;;;12.07;6.68;;;;;;;;;;5012460;28;20190;-71
2021/11/06 14:12:42;;;;;;;7.90;5.63;;;;;;;;;;5019422;28;20693;-72
2021/11/06 14:15:11;;;;;;;10.07;6.28;;;;;;;;;;5010927;28;20257;-71
2021/11/06 14:17:49;;;;;;;8.13;4.95;;;;;;;;;;5021663;28;20337;-71
2021/11/06 14:20:16;;;;;;;10.35;5.43;;;;;;;;;;5012492;28;20653;-71
2021/11/06 14:22:49;;;;;;;7.55;5.57;;;;;;;;;;5022168;28;20210;-71
2021/11/06 14:25:26;;;;;;;8.98;5.47;;;;;;;;;;5013602;28;20296;-71
2021/11/06 14:28:15;;;;;;;8.48;5.20;;;;;;;;;;5023041;28;20182;-71
2021/11/06 14:30:51;;;;;;;10.75;5.53;;;;;;;;;;5006009;28;20285;-72
2021/11/06 14:33:37;;;;;;;10.75;6.00;;;;;;;;;;5019368;28;20181;-72